Gillette, WY

4:45 AM MDT on September 15, 2014 (GMT -0600)
Johnson County | Change Station
CLOSE
Current Station
Airport
Location: Buffalo,
Elevation: 4967 ft
Nearby Weather Stations

Elev 4967 ft 44.38 °N, 106.72 °W | Updated 52 minutes ago

Clear
Clear
42 °F
Feels Like 38 °F
N
7
Wind Variable Wind from WSW

Today
High -- | Low -- °F
--% Chance of Precip.
Yesterday
High -- | Low -- °F
Precip. -- in
6:41 AM 7:13 PM
Waning Gibbous, 56% visible
Pressure 30.21 in
Visibility 10.0 miles
Clouds Clear
Windchill 38 °F
Dew Point 34 °F
Humidity 73%
Rainfall 0.00 in
Snow Depth 0 in , 0 in , 0 in
UV 0 out of 12
Pollen 5.50 out of 12
Air Quality Not available.
Flu Activity Not available.
METAR KBYG 150953Z AUTO 24006KT 10SM CLR 06/01 A3027 RMK AO2 SLP230 T00560011 $

More Conditions Fewer Conditions

Pressure 30.21 in
Visibility 10.0 miles
Clouds Clear
Windchill 38 °F
Dew Point 34 °F
Humidity 73%
Rainfall 0.00 in
Snow Depth 0 in , 0 in , 0 in
UV 0 out of 12
Pollen 5.50 out of 12
Air Quality Not available.
Flu Activity Not available.
METAR KBYG 150953Z AUTO 24006KT 10SM CLR 06/01 A3027 RMK AO2 SLP230 T00560011 $

More Conditions Fewer Conditions

10-Day Weather Forecast

Almanac

Astronomy

Sep. 15, 2014 Rise Set
Actual Time 6:41 AM MDT 7:13 PM MDT
Civil Twilight 6:12 AM MDT 7:42 PM MDT
Nautical Twilight 5:37 AM MDT 8:16 PM MDT
Astronomical Twilight 5:01 AM MDT 8:52 PM MDT
Moon 11:44 PM MDT 1:58 PM MDT
Length of Visible Light 13h 30m
Length of Day
12h 31m
Tomorrow will be 3m 4s shorter.
Waning Gibbous, 56% of the Moon is Illuminated
Today
Waning Gibbous
Sep 15
Last Quarter
Sep 24
New
Oct 1
First Quarter
Oct 8
Full

Today's Extremes

State Highs State Lows

Community

WunderPhotos

Upload Photos

1,753,428 photos uploaded!

WunderBlogs® & News

By Dr. Jeff Masters
Director of Meteorology, Weather Underground
By Kari Strenfel
Meteorologist, Weather Underground
By Christopher C. Burt
Weather Historian, Weather Underground
September 15, 2014
September 15, 2014
September 15, 2014

Nearby

Snow Depth

Station Depth Elevation
New Fork Lake 0 in 8340 ft
Cinnabar Park 0 in 9690 ft
Thumb Divide 0 in 7980 ft
Phillips Bench 0 in 8200 ft
Cold Springs 0 in 9630 ft

Earthquake Activity

City Distance Mag. Time & Date
No recent earthquake activity has been reported nearby.
Minimum magnitude displayed is 2.5.

Coastal Water Temperatures

Place Temperature
No Stations Reporting

Nearby Weather Stations